Time;durP1;ratioP1;P1;durP2;ratioP2;P2;SDS_P1;SDS_P2;PMS_P1;PMS_P2;Temp;Humidity;BMP_temperature;BMP_pressure;BME280_temperature;BME280_humidity;BME280_pressure;Samples;Min_cycle;Max_cycle;Signal;HPM_P1;HPM_P2
2021/05/26 00:01:30;;;;;;;1.77;0.10;;;;;;;;;;3584560;40;20651;-69
2021/05/26 00:03:57;;;;;;;0.73;0.17;;;;;;;;;;3602020;39;20640;-68
2021/05/26 00:06:23;;;;;;;1.23;0.20;;;;;;;;;;3594011;39;20462;-69
2021/05/26 00:08:50;;;;;;;0.70;0.20;;;;;;;;;;3596282;39;20459;-69
2021/05/26 00:11:18;;;;;;;0.60;0.20;;;;;;;;;;3597055;39;20738;-69
2021/05/26 00:13:44;;;;;;;0.90;0.20;;;;;;;;;;3587635;39;20381;-69
2021/05/26 00:16:11;;;;;;;0.80;0.20;;;;;;;;;;3592257;39;20794;-69
2021/05/26 00:18:37;;;;;;;1.00;0.35;;;;;;;;;;3596959;39;20379;-69
2021/05/26 00:21:05;;;;;;;0.50;0.10;;;;;;;;;;3597094;39;20843;-69
2021/05/26 00:23:31;;;;;;;0.90;0.10;;;;;;;;;;3596926;39;20657;-69
2021/05/26 00:25:58;;;;;;;0.40;0.10;;;;;;;;;;3597002;39;20627;-69
2021/05/26 00:28:24;;;;;;;0.20;0.10;;;;;;;;;;3587614;40;20481;-69
2021/05/26 00:30:55;;;;;;;2.10;0.10;;;;;;;;;;3589765;39;20805;-69
2021/05/26 00:33:21;;;;;;;0.60;0.10;;;;;;;;;;3588042;40;20377;-68
2021/05/26 00:35:48;;;;;;;0.73;0.20;;;;;;;;;;3587451;40;20393;-69
2021/05/26 00:38:14;;;;;;;0.65;0.20;;;;;;;;;;3597097;39;20356;-69
2021/05/26 00:40:40;;;;;;;1.30;0.43;;;;;;;;;;3590057;39;20414;-68
2021/05/26 00:43:08;;;;;;;0.40;0.10;;;;;;;;;;3597062;39;20353;-68
2021/05/26 00:45:35;;;;;;;0.50;0.10;;;;;;;;;;3596884;39;20462;-69
2021/05/26 00:48:01;;;;;;;0.98;0.17;;;;;;;;;;3594015;39;20362;-68
2021/05/26 00:50:28;;;;;;;1.00;0.10;;;;;;;;;;3593198;39;20369;-69
2021/05/26 00:52:54;;;;;;;1.60;0.10;;;;;;;;;;3590117;39;20794;-68
2021/05/26 00:55:21;;;;;;;0.60;0.15;;;;;;;;;;3581948;40;20401;-68
2021/05/26 00:57:48;;;;;;;0.85;0.10;;;;;;;;;;3588696;39;20369;-69
2021/05/26 01:00:17;;;;;;;0.73;0.10;;;;;;;;;;3596551;39;20373;-69
2021/05/26 01:02:44;;;;;;;1.45;0.20;;;;;;;;;;3580530;39;20433;-69
2021/05/26 01:05:11;;;;;;;0.70;0.10;;;;;;;;;;3593174;39;20514;-69
2021/05/26 01:07:40;;;;;;;1.10;0.30;;;;;;;;;;3586837;39;20394;-69
2021/05/26 01:10:07;;;;;;;0.82;0.13;;;;;;;;;;3596622;39;20368;-68
2021/05/26 01:12:34;;;;;;;2.60;0.20;;;;;;;;;;3596578;39;20372;-69
2021/05/26 01:15:00;;;;;;;1.33;0.20;;;;;;;;;;3596487;39;20369;-69
2021/05/26 01:17:27;;;;;;;0.93;0.17;;;;;;;;;;3593478;39;20814;-69
2021/05/26 01:19:53;;;;;;;1.13;0.20;;;;;;;;;;3593783;39;20376;-69
2021/05/26 01:22:20;;;;;;;1.30;0.20;;;;;;;;;;3590146;40;20396;-69
2021/05/26 01:24:46;;;;;;;1.33;0.20;;;;;;;;;;3599898;40;20388;-69
2021/05/26 01:27:13;;;;;;;1.10;0.20;;;;;;;;;;3592847;39;20374;-69
2021/05/26 01:29:39;;;;;;;1.23;0.10;;;;;;;;;;3600170;39;20738;-69
2021/05/26 01:32:05;;;;;;;1.33;0.17;;;;;;;;;;3590485;39;20399;-69
2021/05/26 01:34:32;;;;;;;2.75;0.40;;;;;;;;;;3590462;40;20369;-69
2021/05/26 01:36:58;;;;;;;1.80;0.20;;;;;;;;;;3599794;39;20349;-69
2021/05/26 01:39:25;;;;;;;0.80;0.10;;;;;;;;;;3597015;39;20647;-69
2021/05/26 01:41:51;;;;;;;3.03;0.10;;;;;;;;;;3594672;39;20471;-69
2021/05/26 01:44:17;;;;;;;0.80;0.15;;;;;;;;;;3598798;39;20477;-69
2021/05/26 01:46:43;;;;;;;1.52;0.20;;;;;;;;;;3600556;39;20416;-69
2021/05/26 01:49:10;;;;;;;0.50;0.10;;;;;;;;;;3601774;39;20352;-69
2021/05/26 01:51:36;;;;;;;1.98;0.20;;;;;;;;;;3588301;40;20414;-69
2021/05/26 01:54:02;;;;;;;0.70;0.20;;;;;;;;;;3599028;39;20381;-69
2021/05/26 01:56:31;;;;;;;2.15;0.20;;;;;;;;;;3590183;40;20701;-69
2021/05/26 01:58:58;;;;;;;0.40;0.20;;;;;;;;;;3590103;40;20788;-69
2021/05/26 02:01:25;;;;;;;2.15;0.20;;;;;;;;;;3599632;39;20615;-69
2021/05/26 02:03:52;;;;;;;0.30;0.10;;;;;;;;;;3599283;39;20383;-69
2021/05/26 02:06:19;;;;;;;0.40;0.20;;;;;;;;;;3596140;40;20526;-69
2021/05/26 02:08:46;;;;;;;0.82;0.17;;;;;;;;;;3592968;40;20434;-69
2021/05/26 02:13:59;;;;;;;0.98;0.20;;;;;;;;;;3587819;40;20382;-69
2021/05/26 02:16:26;;;;;;;1.20;0.28;;;;;;;;;;3587780;40;20405;-69
2021/05/26 02:18:52;;;;;;;3.10;0.30;;;;;;;;;;3585346;40;20390;-69
2021/05/26 02:21:18;;;;;;;0.60;0.20;;;;;;;;;;3571361;40;20474;-69
2021/05/26 02:23:44;;;;;;;0.57;0.10;;;;;;;;;;3585883;40;20458;-68
2021/05/26 02:26:10;;;;;;;0.70;0.20;;;;;;;;;;3590342;40;20432;-68
2021/05/26 02:28:36;;;;;;;1.50;0.20;;;;;;;;;;3588230;40;20639;-69
2021/05/26 02:31:03;;;;;;;1.08;0.20;;;;;;;;;;3587467;40;20405;-69
2021/05/26 02:33:29;;;;;;;1.60;0.22;;;;;;;;;;3589295;40;20399;-69
2021/05/26 02:35:56;;;;;;;1.40;0.10;;;;;;;;;;3584153;40;20426;-69
2021/05/26 02:38:22;;;;;;;1.10;0.10;;;;;;;;;;3587366;39;20697;-69
2021/05/26 02:40:48;;;;;;;0.13;0.10;;;;;;;;;;3597464;39;20428;-69
2021/05/26 02:43:14;;;;;;;1.20;0.20;;;;;;;;;;3595954;39;20365;-69
2021/05/26 02:45:40;;;;;;;1.00;0.20;;;;;;;;;;3599219;39;20365;-69
2021/05/26 02:48:07;;;;;;;0.77;0.10;;;;;;;;;;3595882;39;20381;-69
2021/05/26 02:50:34;;;;;;;1.00;0.20;;;;;;;;;;3593625;39;20403;-69
2021/05/26 02:53:00;;;;;;;0.28;0.20;;;;;;;;;;3605850;39;20755;-68
2021/05/26 02:55:27;;;;;;;2.15;0.20;;;;;;;;;;3600009;39;20788;-69
2021/05/26 02:57:53;;;;;;;0.65;0.10;;;;;;;;;;3599198;39;20389;-69
2021/05/26 03:00:20;;;;;;;0.43;0.20;;;;;;;;;;3602644;39;20948;-69
2021/05/26 03:02:47;;;;;;;1.27;0.10;;;;;;;;;;3595428;39;20421;-69
2021/05/26 03:05:15;;;;;;;0.60;0.20;;;;;;;;;;3586248;40;20783;-69
2021/05/26 03:07:41;;;;;;;0.60;0.20;;;;;;;;;;3588709;40;20391;-69
2021/05/26 03:10:09;;;;;;;1.02;0.10;;;;;;;;;;3586680;40;20404;-69
2021/05/26 03:12:35;;;;;;;0.70;0.20;;;;;;;;;;3581847;40;20367;-69
2021/05/26 03:15:01;;;;;;;0.98;0.10;;;;;;;;;;3579801;40;20376;-69
2021/05/26 03:17:28;;;;;;;0.80;0.10;;;;;;;;;;3580816;40;20380;-69
2021/05/26 03:19:54;;;;;;;1.52;0.20;;;;;;;;;;3587284;40;20381;-69
2021/05/26 03:22:21;;;;;;;0.70;0.20;;;;;;;;;;3587247;40;20763;-69
2021/05/26 03:24:47;;;;;;;0.90;0.10;;;;;;;;;;3587290;40;20509;-69
2021/05/26 03:27:14;;;;;;;1.65;0.17;;;;;;;;;;3585318;40;20805;-69
2021/05/26 03:29:40;;;;;;;2.30;0.30;;;;;;;;;;3577307;40;20749;-69
2021/05/26 03:32:06;;;;;;;0.82;0.30;;;;;;;;;;3577246;40;20641;-69
2021/05/26 03:34:32;;;;;;;0.40;0.20;;;;;;;;;;3581225;40;20375;-69
2021/05/26 03:36:58;;;;;;;0.70;0.13;;;;;;;;;;3587212;40;20370;-69
2021/05/26 03:39:25;;;;;;;1.40;0.20;;;;;;;;;;3577265;40;20376;-69
2021/05/26 03:41:51;;;;;;;1.02;0.20;;;;;;;;;;3577522;40;20396;-69
2021/05/26 03:44:18;;;;;;;0.28;0.20;;;;;;;;;;3580060;40;20379;-69
2021/05/26 03:46:44;;;;;;;1.17;0.20;;;;;;;;;;3586970;40;20389;-69
2021/05/26 03:49:10;;;;;;;1.30;0.20;;;;;;;;;;3587085;40;20410;-69
2021/05/26 03:51:37;;;;;;;1.05;0.10;;;;;;;;;;3586953;40;20413;-69
2021/05/26 03:54:03;;;;;;;0.90;0.17;;;;;;;;;;3581914;40;20391;-70
2021/05/26 03:56:30;;;;;;;0.57;0.10;;;;;;;;;;3591192;40;20374;-69
2021/05/26 03:58:57;;;;;;;0.98;0.20;;;;;;;;;;3587044;40;20775;-70
2021/05/26 04:01:23;;;;;;;0.70;0.20;;;;;;;;;;3582804;40;20384;-69
2021/05/26 04:03:51;;;;;;;1.20;0.22;;;;;;;;;;3584969;40;20395;-69
2021/05/26 04:06:17;;;;;;;0.80;0.28;;;;;;;;;;3592063;40;20382;-69
2021/05/26 04:08:43;;;;;;;0.73;0.25;;;;;;;;;;3585881;40;20440;-69
2021/05/26 04:11:09;;;;;;;0.88;0.40;;;;;;;;;;3591841;40;20392;-69
2021/05/26 04:13:36;;;;;;;0.77;0.20;;;;;;;;;;3588566;40;20370;-69
2021/05/26 04:16:02;;;;;;;1.08;0.10;;;;;;;;;;3586991;40;20380;-70
2021/05/26 04:18:28;;;;;;;0.90;0.20;;;;;;;;;;3586851;40;20541;-69
2021/05/26 04:20:55;;;;;;;1.73;0.33;;;;;;;;;;3586936;40;20669;-70
2021/05/26 04:23:21;;;;;;;0.93;0.20;;;;;;;;;;3578987;40;20403;-70
2021/05/26 04:25:51;;;;;;;1.10;0.20;;;;;;;;;;3586634;40;20418;-70
2021/05/26 04:28:18;;;;;;;1.33;0.20;;;;;;;;;;3584844;40;20375;-69
2021/05/26 04:30:45;;;;;;;0.50;0.20;;;;;;;;;;3586915;40;20790;-70
2021/05/26 04:33:11;;;;;;;0.57;0.15;;;;;;;;;;3589418;40;20401;-69
2021/05/26 04:35:37;;;;;;;0.85;0.15;;;;;;;;;;3586734;40;20422;-70
2021/05/26 04:38:03;;;;;;;1.55;0.13;;;;;;;;;;3573166;40;20402;-70
2021/05/26 04:40:30;;;;;;;0.43;0.20;;;;;;;;;;3583286;40;20404;-70
2021/05/26 04:42:56;;;;;;;1.40;0.20;;;;;;;;;;3586686;40;20371;-70
2021/05/26 04:45:22;;;;;;;0.30;0.20;;;;;;;;;;3586778;40;20374;-70
2021/05/26 04:47:49;;;;;;;0.47;0.20;;;;;;;;;;3586669;40;20366;-70
2021/05/26 04:50:16;;;;;;;0.50;0.20;;;;;;;;;;3586875;40;20394;-70
2021/05/26 04:52:42;;;;;;;0.50;0.20;;;;;;;;;;3578522;40;20394;-70
2021/05/26 04:55:08;;;;;;;0.98;0.28;;;;;;;;;;3586200;40;20401;-70
2021/05/26 04:57:35;;;;;;;0.20;0.10;;;;;;;;;;3591522;40;20378;-69
2021/05/26 05:00:02;;;;;;;0.50;0.10;;;;;;;;;;3590535;40;20374;-70
2021/05/26 05:02:28;;;;;;;1.27;0.20;;;;;;;;;;3586767;40;21072;-70
2021/05/26 05:04:55;;;;;;;1.48;0.22;;;;;;;;;;3588566;39;20408;-69
2021/05/26 05:07:22;;;;;;;0.73;0.10;;;;;;;;;;3594715;39;20381;-69
2021/05/26 05:09:50;;;;;;;0.65;0.10;;;;;;;;;;3586175;39;20396;-70
2021/05/26 05:12:16;;;;;;;1.20;0.40;;;;;;;;;;3596272;39;20479;-69
2021/05/26 05:14:42;;;;;;;1.20;0.20;;;;;;;;;;3587237;40;20649;-70
2021/05/26 05:17:08;;;;;;;0.35;0.20;;;;;;;;;;3584428;39;20394;-70
2021/05/26 05:19:34;;;;;;;0.70;0.20;;;;;;;;;;3584346;40;20384;-70
2021/05/26 05:22:01;;;;;;;0.40;0.20;;;;;;;;;;3591944;39;20399;-70
2021/05/26 05:24:28;;;;;;;0.40;0.20;;;;;;;;;;3590622;39;20757;-69
2021/05/26 05:26:54;;;;;;;0.75;0.38;;;;;;;;;;3579959;39;20408;-70
2021/05/26 05:29:20;;;;;;;0.80;0.20;;;;;;;;;;3589989;39;20403;-70
2021/05/26 05:31:46;;;;;;;1.17;0.30;;;;;;;;;;3596965;39;20389;-70
2021/05/26 05:34:12;;;;;;;1.02;0.35;;;;;;;;;;3593623;39;20613;-70
2021/05/26 05:36:38;;;;;;;1.87;0.20;;;;;;;;;;3592760;39;20534;-69
2021/05/26 05:39:06;;;;;;;0.63;0.20;;;;;;;;;;3591900;39;20383;-69
2021/05/26 05:41:32;;;;;;;1.30;0.20;;;;;;;;;;3595277;39;20674;-69
2021/05/26 05:43:58;;;;;;;0.95;0.20;;;;;;;;;;3594885;39;20788;-71
2021/05/26 05:46:24;;;;;;;1.33;0.30;;;;;;;;;;3591927;39;20754;-70
2021/05/26 05:48:51;;;;;;;1.03;0.20;;;;;;;;;;3589303;40;20386;-70
2021/05/26 05:51:17;;;;;;;1.80;0.30;;;;;;;;;;3594868;39;20383;-69
2021/05/26 05:53:43;;;;;;;0.95;0.20;;;;;;;;;;3594203;39;20370;-70
2021/05/26 05:56:10;;;;;;;1.10;0.23;;;;;;;;;;3578100;40;20410;-70
2021/05/26 05:58:36;;;;;;;1.45;0.30;;;;;;;;;;3592495;39;20372;-70
2021/05/26 06:01:02;;;;;;;3.17;0.50;;;;;;;;;;3600632;39;20686;-70
2021/05/26 06:03:29;;;;;;;0.82;0.30;;;;;;;;;;3596161;39;20408;-70
2021/05/26 06:05:55;;;;;;;1.05;0.32;;;;;;;;;;3589738;39;20750;-70
2021/05/26 06:08:21;;;;;;;1.55;0.45;;;;;;;;;;3590441;39;20361;-69
2021/05/26 06:10:47;;;;;;;1.00;0.20;;;;;;;;;;3597900;39;20396;-70
2021/05/26 06:13:14;;;;;;;1.30;0.20;;;;;;;;;;3590002;39;20378;-70
2021/05/26 06:15:41;;;;;;;1.63;0.50;;;;;;;;;;3594481;39;20427;-70
2021/05/26 06:18:07;;;;;;;0.90;0.38;;;;;;;;;;3592934;39;20372;-71
2021/05/26 06:20:33;;;;;;;1.30;0.30;;;;;;;;;;3593253;39;20370;-70
2021/05/26 06:22:59;;;;;;;1.92;0.40;;;;;;;;;;3597050;40;20400;-70
2021/05/26 06:25:26;;;;;;;1.63;0.40;;;;;;;;;;3585011;39;20463;-70
2021/05/26 06:27:52;;;;;;;1.17;0.30;;;;;;;;;;3583241;39;20766;-70
2021/05/26 06:30:20;;;;;;;0.90;0.20;;;;;;;;;;3594080;40;20899;-70
2021/05/26 06:32:46;;;;;;;0.98;0.20;;;;;;;;;;3594663;39;20399;-70
2021/05/26 06:35:13;;;;;;;1.38;0.40;;;;;;;;;;3596061;39;20638;-70
2021/05/26 06:37:39;;;;;;;2.05;0.30;;;;;;;;;;3592496;39;20376;-70
2021/05/26 06:40:06;;;;;;;2.27;0.60;;;;;;;;;;3591656;39;20481;-69
2021/05/26 06:42:38;;;;;;;3.10;0.50;;;;;;;;;;3589754;40;20669;-70
2021/05/26 06:45:04;;;;;;;5.65;0.60;;;;;;;;;;3591575;40;20638;-70
2021/05/26 06:47:31;;;;;;;3.80;0.70;;;;;;;;;;3592969;39;20384;-70
2021/05/26 06:49:58;;;;;;;4.60;0.60;;;;;;;;;;3594898;39;20481;-70
2021/05/26 06:52:24;;;;;;;5.60;1.10;;;;;;;;;;3597383;39;20441;-70
2021/05/26 06:54:50;;;;;;;5.80;0.70;;;;;;;;;;3594396;39;20377;-70
2021/05/26 06:57:17;;;;;;;6.03;0.85;;;;;;;;;;3591066;39;20374;-70
2021/05/26 06:59:44;;;;;;;5.27;0.70;;;;;;;;;;3596323;39;20472;-70
2021/05/26 07:02:10;;;;;;;6.65;1.10;;;;;;;;;;3600012;39;20396;-70
2021/05/26 07:04:37;;;;;;;4.60;1.20;;;12.90;51.30;;;;;;3596218;39;20448;-70
2021/05/26 07:07:03;;;;;;;5.45;1.00;;;;;;;;;;3586671;40;20408;-70
2021/05/26 07:09:29;;;;;;;5.43;0.90;;;;;;;;;;3599298;39;20364;-70
2021/05/26 07:11:55;;;;;;;4.32;0.80;;;;;;;;;;3597045;39;20444;-70
2021/05/26 07:14:21;;;;;;;5.97;1.10;;;;;;;;;;3587826;40;20473;-70
2021/05/26 07:16:47;;;;;;;6.75;0.90;;;;;;;;;;3594163;39;20392;-70
2021/05/26 07:19:14;;;;;;;5.00;1.02;;;;;;;;;;3595404;39;20428;-70
2021/05/26 07:21:41;;;;;;;7.37;1.00;;;;;;;;;;3593287;39;20375;-69
2021/05/26 07:24:07;;;;;;;5.57;0.93;;;;;;;;;;3587633;39;20398;-70
2021/05/26 07:26:34;;;;;;;5.75;0.80;;;;;;;;;;3597375;39;20977;-71
2021/05/26 07:29:00;;;;;;;6.88;1.10;;;;;;;;;;3598778;39;20495;-71
2021/05/26 07:31:26;;;;;;;5.78;1.05;;;;;;;;;;3601290;39;20398;-71
2021/05/26 07:33:53;;;;;;;9.77;1.60;;;;;;;;;;3600341;39;20391;-70
2021/05/26 07:36:19;;;;;;;4.93;1.38;;;;;;;;;;3600427;39;20775;-70
2021/05/26 07:38:46;;;;;;;4.22;1.00;;;;;;;;;;3598661;39;20629;-70
2021/05/26 07:41:12;;;;;;;5.67;1.10;;;;;;;;;;3601094;39;20395;-71
2021/05/26 07:43:39;;;;;;;6.05;1.05;;;;;;;;;;3598875;39;20780;-71
2021/05/26 07:46:05;;;;;;;7.77;1.23;;;;;;;;;;3600241;39;20453;-71
2021/05/26 07:48:31;;;;;;;6.05;0.95;;;;;;;;;;3595866;39;20435;-71
2021/05/26 07:50:58;;;;;;;6.50;1.20;;;;;;;;;;3595494;39;20769;-71
2021/05/26 07:53:24;;;;;;;5.87;1.40;;;;;;;;;;3591147;39;20370;-71
2021/05/26 07:55:51;;;;;;;6.55;1.23;;;;;;;;;;3601011;39;20373;-70
2021/05/26 07:58:17;;;;;;;4.20;1.00;;;;;;;;;;3594635;39;20420;-70
2021/05/26 08:00:43;;;;;;;6.88;1.30;;;;;;;;;;3597009;39;20447;-70
2021/05/26 08:03:09;;;;;;;6.63;1.20;;;;;;;;;;3596928;39;20690;-72
2021/05/26 08:05:35;;;;;;;3.63;1.20;;;;;;;;;;3593780;39;20660;-71
2021/05/26 08:08:01;;;;;;;4.95;0.82;;;16.80;87.80;;;;;;3592378;39;20823;-71
2021/05/26 08:10:30;;;;;;;6.03;1.00;;;18.30;99.90;;;;;;3595307;39;20446;-71
2021/05/26 08:12:57;;;;;;;7.53;1.83;;;;;;;;;;3597873;39;20436;-71
2021/05/26 08:15:23;;;;;;;7.20;1.25;;;;;;;;;;3589718;39;20380;-71
2021/05/26 08:17:49;;;;;;;6.63;1.30;;;;;;;;;;3586005;40;20458;-72
2021/05/26 08:20:16;;;;;;;4.40;1.00;;;;;;;;;;3584682;40;20409;-71
2021/05/26 08:22:42;;;;;;;6.97;1.50;;;;;;;;;;3594721;39;20369;-71
2021/05/26 08:25:09;;;;;;;7.03;1.20;;;18.70;99.90;;;;;;3584794;39;20696;-71
2021/05/26 08:27:35;;;;;;;6.57;1.52;;;18.40;92.90;;;;;;3590236;39;20387;-71
2021/05/26 08:30:05;;;;;;;10.60;1.40;;;18.40;91.10;;;;;;3595027;39;20389;-71
2021/05/26 08:32:31;;;;;;;7.03;1.20;;;18.50;90.40;;;;;;3591611;39;20441;-70
2021/05/26 08:34:57;;;;;;;8.07;1.70;;;18.60;90.80;;;;;;3587525;40;20432;-70
2021/05/26 08:37:23;;;;;;;6.57;1.47;;;18.40;89.80;;;;;;3587355;39;20853;-71
2021/05/26 08:39:49;;;;;;;7.30;1.42;;;18.70;90.20;;;;;;3593613;39;20381;-72
2021/05/26 08:42:16;;;;;;;4.97;0.98;;;18.60;90.50;;;;;;3592631;39;20440;-72
2021/05/26 08:44:42;;;;;;;5.43;1.30;;;18.80;89.70;;;;;;3581432;40;20460;-72
2021/05/26 08:47:15;;;;;;;6.30;1.73;;;18.90;92.40;;;;;;3596039;39;20417;-71
2021/05/26 08:49:43;;;;;;;7.20;1.42;;;18.70;92.00;;;;;;3593075;39;20416;-71
2021/05/26 08:52:09;;;;;;;8.05;1.42;;;18.50;91.80;;;;;;3581901;40;20408;-71
2021/05/26 08:54:35;;;;;;;6.78;1.60;;;;;;;;;;3594316;39;20700;-71
2021/05/26 08:57:01;;;;;;;4.45;1.30;;;18.80;91.80;;;;;;3594826;40;20763;-71
2021/05/26 08:59:27;;;;;;;5.43;1.37;;;;;;;;;;3600121;39;20399;-71
2021/05/26 09:01:54;;;;;;;5.23;1.40;;;;;;;;;;3595144;39;20392;-71
2021/05/26 09:04:29;;;;;;;5.07;0.90;;;;;;;;;;3598301;39;20417;-71
2021/05/26 09:07:14;;;;;;;6.70;1.73;;;;;;;;;;3599542;39;20740;-70
2021/05/26 09:09:48;;;;;;;8.82;1.58;;;;;;;;;;3599814;39;20361;-70
2021/05/26 09:12:15;;;;;;;8.15;1.42;;;;;;;;;;3599254;39;20720;-70
2021/05/26 09:14:41;;;;;;;7.13;1.45;;;;;;;;;;3598829;39;20490;-71
2021/05/26 09:17:11;;;;;;;8.15;1.60;;;;;;;;;;3599653;39;20772;-70
2021/05/26 09:19:38;;;;;;;6.72;1.13;;;;;;;;;;3599731;39;20380;-71
2021/05/26 09:22:09;;;;;;;4.47;1.10;;;19.00;87.10;;;;;;3599770;39;20477;-70
2021/05/26 09:24:36;;;;;;;5.38;1.30;;;;;;;;;;3600076;39;20767;-70
2021/05/26 09:27:02;;;;;;;5.57;1.25;;;;;;;;;;3600135;39;20434;-70
2021/05/26 09:29:30;;;;;;;4.28;0.93;;;19.30;88.30;;;;;;3600072;39;20762;-70
2021/05/26 09:32:17;;;;;;;5.35;1.15;;;;;;;;;;3598897;39;20403;-70
2021/05/26 09:34:44;;;;;;;5.53;1.23;;;;;;;;;;3599035;39;20377;-71
2021/05/26 09:37:16;;;;;;;6.68;1.10;;;20.50;97.80;;;;;;3599620;39;20401;-70
2021/05/26 09:40:03;;;;;;;4.87;1.30;;;20.30;85.40;;;;;;3599742;39;20775;-70
2021/05/26 09:42:34;;;;;;;5.65;1.40;;;20.10;85.00;;;;;;3594027;39;20773;-70
2021/05/26 09:45:09;;;;;;;5.00;1.35;;;19.90;85.30;;;;;;3600117;39;20423;-71
2021/05/26 09:47:36;;;;;;;4.97;1.30;;;19.80;87.90;;;;;;3599394;39;20415;-71
2021/05/26 09:50:21;;;;;;;8.17;1.27;;;20.10;89.10;;;;;;3600067;39;20641;-71
2021/05/26 09:53:04;;;;;;;7.65;1.35;;;;;;;;;;3580210;40;20406;-70
2021/05/26 09:55:31;;;;;;;7.40;1.20;;;;;;;;;;3580936;40;20393;-70
2021/05/26 09:57:58;;;;;;;5.93;1.20;;;;;;;;;;3580270;40;20453;-70
2021/05/26 10:00:25;;;;;;;5.85;1.40;;;;;;;;;;3581305;40;20394;-68
2021/05/26 10:02:51;;;;;;;6.35;1.48;;;;;;;;;;3579731;40;20850;-71
2021/05/26 10:05:19;;;;;;;6.53;1.38;;;;;;;;;;3581028;40;20465;-71
2021/05/26 10:07:45;;;;;;;8.55;1.67;;;;;;;;;;3579820;40;20453;-71
2021/05/26 10:10:13;;;;;;;9.25;1.38;;;19.80;86.60;;;;;;3579800;40;20436;-71
2021/05/26 10:12:42;;;;;;;7.40;1.10;;;20.90;99.90;;;;;;3579236;40;20390;-72
2021/05/26 10:15:09;;;;;;;6.20;1.25;;;;;;;;;;3579836;40;20423;-72
2021/05/26 10:17:38;;;;;;;6.53;1.48;;;;;;;;;;3580675;40;20430;-71
2021/05/26 10:20:07;;;;;;;3.80;1.05;;;20.90;99.90;;;;;;3579700;40;20401;-73
2021/05/26 10:22:36;;;;;;;5.13;1.27;;;21.30;90.60;;;;;;3580114;40;20393;-71
2021/05/26 10:25:04;;;;;;;7.88;1.20;;;20.40;84.60;;;;;;3581531;40;20445;-72
2021/05/26 10:27:35;;;;;;;4.13;1.10;;;20.60;87.30;;;;;;3572205;40;20403;-71
2021/05/26 10:30:02;;;;;;;4.68;0.90;;;21.00;84.00;;;;;;3581210;40;20479;-71
2021/05/26 10:32:46;;;;;;;4.20;1.10;;;21.40;81.80;;;;;;3577931;40;20748;-69
2021/05/26 10:35:12;;;;;;;6.27;1.13;;;21.40;80.60;;;;;;3580985;40;20792;-69
2021/05/26 10:37:41;;;;;;;7.40;1.53;;;21.10;84.80;;;;;;3571433;40;20413;-71
2021/05/26 10:40:34;;;;;;;7.45;1.25;;;21.10;82.20;;;;;;3582236;40;20397;-71
2021/05/26 10:43:25;;;;;;;7.45;1.30;;;21.30;81.80;;;;;;3579332;40;20399;-71
2021/05/26 10:45:55;;;;;;;7.20;1.17;;;21.30;85.20;;;;;;3580777;40;20420;-71
2021/05/26 10:49:01;;;;;;;4.60;1.20;;;21.30;83.80;;;;;;3572821;40;20402;-72
2021/05/26 10:52:03;;;;;;;5.37;1.00;;;20.90;80.80;;;;;;3581116;40;20380;-71
2021/05/26 10:55:04;;;;;;;3.53;0.90;;;21.50;80.20;;;;;;3577481;40;20394;-71
2021/05/26 10:57:51;;;;;;;5.00;1.20;;;21.40;79.60;;;;;;3584225;40;20381;-71
2021/05/26 11:00:30;;;;;;;5.03;1.10;;;;;;;;;;3584733;40;20383;-72
2021/05/26 11:03:15;;;;;;;6.32;1.38;;;;;;;;;;3582296;40;20491;-71
2021/05/26 11:05:43;;;;;;;4.28;1.15;;;;;;;;;;3589517;39;20392;-72
2021/05/26 11:08:24;;;;;;;4.90;1.67;;;;;;;;;;3587380;40;20403;-72
2021/05/26 11:10:50;;;;;;;5.77;0.90;;;21.90;78.30;;;;;;3582182;40;20766;-72
2021/05/26 11:13:18;;;;;;;4.95;1.02;;;21.80;90.60;;;;;;3597427;39;20428;-71
2021/05/26 11:15:45;;;;;;;6.15;1.17;;;21.90;90.20;;;;;;3603867;39;20784;-71
2021/05/26 11:18:33;;;;;;;5.90;1.20;;;;;;;;;;3596251;39;20426;-71
2021/05/26 11:21:00;;;;;;;4.00;1.60;;;21.40;90.30;;;;;;3583906;40;20391;-72
2021/05/26 11:23:26;;;;;;;6.65;1.27;;;20.90;91.80;;;;;;3597123;39;20637;-71
2021/05/26 11:25:54;;;;;;;3.58;0.93;;;21.10;90.80;;;;;;3590662;39;20389;-71
2021/05/26 11:28:27;;;;;;;5.60;1.10;;;20.80;90.30;;;;;;3593006;40;20369;-72
2021/05/26 11:31:00;;;;;;;4.13;1.20;;;;;;;;;;3593679;39;20398;-71
2021/05/26 11:33:26;;;;;;;3.55;0.82;;;21.00;91.70;;;;;;3593057;40;20394;-72
2021/05/26 11:35:52;;;;;;;6.03;1.00;;;21.50;89.30;;;;;;3596462;39;20399;-71
2021/05/26 11:38:25;;;;;;;3.80;0.60;;;21.10;90.70;;;;;;3592403;39;20453;-72
2021/05/26 11:40:53;;;;;;;5.23;0.90;;;21.30;90.20;;;;;;3598671;39;20403;-71
2021/05/26 11:43:23;;;;;;;3.95;0.85;;;21.40;88.30;;;;;;3601155;39;21326;-72
2021/05/26 11:46:04;;;;;;;4.00;0.70;;;21.60;88.60;;;;;;3598622;39;20768;-72
2021/05/26 11:48:30;;;;;;;4.07;0.80;;;;;;;;;;3590152;39;20689;-72
2021/05/26 11:50:57;;;;;;;3.20;0.90;;;;;;;;;;3600864;39;20413;-72
2021/05/26 11:53:23;;;;;;;3.47;0.80;;;;;;;;;;3600362;39;20490;-72
2021/05/26 11:55:52;;;;;;;5.65;1.17;;;;;;;;;;3599085;39;20403;-72
2021/05/26 11:58:40;;;;;;;5.03;1.02;;;21.90;87.70;;;;;;3600711;39;20478;-71
2021/05/26 12:01:09;;;;;;;2.35;0.80;;;21.40;89.20;;;;;;3600902;39;20652;-72
2021/05/26 12:03:35;;;;;;;3.90;0.95;;;21.30;88.60;;;;;;3597089;39;20397;-71
2021/05/26 12:06:01;;;;;;;6.30;0.70;;;21.70;87.30;;;;;;3599820;39;20412;-71
2021/05/26 12:08:28;;;;;;;3.97;0.82;;;21.80;87.80;;;;;;3590578;39;20410;-72
2021/05/26 12:10:56;;;;;;;2.50;0.57;;;21.80;85.50;;;;;;3589927;39;20408;-72
2021/05/26 12:13:23;;;;;;;3.10;0.80;;;;;;;;;;3588741;39;20790;-72
2021/05/26 12:15:51;;;;;;;5.33;0.80;;;;;;;;;;3599707;39;20375;-71
2021/05/26 12:18:18;;;;;;;5.37;0.97;;;;;;;;;;3599196;39;20386;-72
2021/05/26 12:20:46;;;;;;;3.00;0.80;;;22.00;85.70;;;;;;3598151;39;20363;-71
2021/05/26 12:23:12;;;;;;;3.33;0.77;;;;;;;;;;3598925;39;20658;-72
2021/05/26 12:25:40;;;;;;;4.72;1.08;;;;;;;;;;3598559;39;20359;-71
2021/05/26 12:28:17;;;;;;;4.20;1.00;;;23.20;94.20;;;;;;3599087;39;20378;-73
2021/05/26 12:30:43;;;;;;;4.32;0.68;;;24.20;67.80;;;;;;3599679;39;20402;-72
2021/05/26 12:33:18;;;;;;;6.05;1.00;;;24.40;70.80;;;;;;3600619;39;20396;-72
2021/05/26 12:35:58;;;;;;;3.92;0.70;;;24.60;68.00;;;;;;3598871;39;20359;-72
2021/05/26 12:38:24;;;;;;;3.75;0.90;;;24.80;82.10;;;;;;3599594;39;20376;-71
2021/05/26 12:40:50;;;;;;;5.63;0.98;;;24.50;79.20;;;;;;3597726;39;20432;-71
2021/05/26 12:43:28;;;;;;;4.03;0.80;;;24.30;79.30;;;;;;3602193;39;20520;-72
2021/05/26 12:45:55;;;;;;;5.67;0.80;;;24.20;75.80;;;;;;3597075;39;20365;-71
2021/05/26 12:48:23;;;;;;;4.57;0.82;;;24.20;76.20;;;;;;3596757;39;20376;-72
2021/05/26 12:50:49;;;;;;;3.90;0.98;;;24.30;75.90;;;;;;3595981;39;20377;-72
2021/05/26 12:53:17;;;;;;;5.15;1.10;;;24.10;77.10;;;;;;3596446;39;20401;-71
2021/05/26 12:55:43;;;;;;;6.30;1.35;;;23.50;78.20;;;;;;3594724;39;20416;-71
2021/05/26 12:58:14;;;;;;;3.97;1.20;;;23.40;79.60;;;;;;3590076;39;20433;-71
2021/05/26 13:00:41;;;;;;;3.55;0.77;;;23.50;78.10;;;;;;3592342;39;20387;-72
2021/05/26 13:03:09;;;;;;;4.03;1.20;;;24.00;74.70;;;;;;3590358;39;20392;-72
2021/05/26 13:05:38;;;;;;;3.50;0.90;;;24.30;74.90;;;;;;3602130;39;20406;-72
2021/05/26 13:08:12;;;;;;;5.38;0.93;;;24.40;74.70;;;;;;3592550;39;20392;-72
2021/05/26 13:10:46;;;;;;;4.50;1.00;;;24.80;82.60;;;;;;3597484;39;20652;-71
2021/05/26 13:13:18;;;;;;;4.57;1.10;;;24.80;90.20;;;;;;3606956;39;20375;-71
2021/05/26 13:15:45;;;;;;;5.18;0.90;;;25.10;63.90;;;;;;3589653;39;20376;-72
2021/05/26 13:18:11;;;;;;;3.33;0.80;;;24.70;64.50;;;;;;3596590;39;20376;-72
2021/05/26 13:20:40;;;;;;;2.85;0.60;;;24.70;64.80;;;;;;3596125;39;20408;-72
2021/05/26 13:23:07;;;;;;;4.45;0.85;;;24.40;65.10;;;;;;3596477;39;20381;-72
2021/05/26 13:25:35;;;;;;;7.82;1.30;;;24.10;69.10;;;;;;3594684;39;20386;-72
2021/05/26 13:28:02;;;;;;;4.82;0.77;;;;;;;;;;3591595;39;20380;-71
2021/05/26 13:30:29;;;;;;;5.45;0.90;;;;;;;;;;3596355;39;20369;-72
2021/05/26 13:32:56;;;;;;;4.55;0.85;;;;;;;;;;3596546;39;20381;-72
2021/05/26 13:35:23;;;;;;;4.70;0.90;;;;;;;;;;3589210;39;20367;-72
2021/05/26 13:37:50;;;;;;;2.75;0.70;;;;;;;;;;3585341;39;20491;-72
2021/05/26 13:40:17;;;;;;;4.95;1.00;;;23.30;67.20;;;;;;3583261;40;20408;-72
2021/05/26 13:42:43;;;;;;;3.00;0.82;;;;;;;;;;3596245;39;20373;-72
2021/05/26 13:45:11;;;;;;;3.03;0.82;;;;;;;;;;3590923;39;20418;-72
2021/05/26 13:47:37;;;;;;;5.57;1.23;;;22.90;68.20;;;;;;3586604;39;20367;-72
2021/05/26 13:50:05;;;;;;;3.92;0.90;;;23.10;68.40;;;;;;3591077;39;20379;-72
2021/05/26 13:52:31;;;;;;;3.75;0.73;;;;;;;;;;3594951;39;20397;-69
2021/05/26 13:54:59;;;;;;;5.70;1.08;;;23.30;68.80;;;;;;3593025;39;20396;-69
2021/05/26 13:57:25;;;;;;;4.00;0.63;;;22.80;67.20;;;;;;3597754;39;20396;-71
2021/05/26 13:59:51;;;;;;;5.70;1.13;;;22.70;69.10;;;;;;3593830;40;20392;-72
2021/05/26 14:02:17;;;;;;;5.65;0.80;;;22.60;72.10;;;;;;3586687;39;20656;-72
2021/05/26 14:04:44;;;;;;;4.65;1.30;;;;;;;;;;3598158;39;20415;-71
2021/05/26 14:07:10;;;;;;;7.85;1.48;;;22.60;71.80;;;;;;3598405;39;20657;-71
2021/05/26 14:09:36;;;;;;;8.50;1.40;;;;;;;;;;3593529;39;20395;-71
2021/05/26 14:12:03;;;;;;;8.23;1.58;;;;;;;;;;3603198;39;20776;-71
2021/05/26 14:14:30;;;;;;;5.75;1.30;;;;;;;;;;3596118;39;20404;-71
2021/05/26 14:16:57;;;;;;;6.05;1.52;;;;;;;;;;3585164;39;20394;-71